createdAt,value
2023-02-23T00:00:22.510Z,31.10
2023-02-23T00:02:50.179Z,25.83
2023-02-23T00:05:17.639Z,27.00
2023-02-23T00:07:45.161Z,26.77
2023-02-23T00:10:15.422Z,26.50
2023-02-23T00:12:42.949Z,27.60
2023-02-23T00:15:11.330Z,27.40
2023-02-23T00:17:39.732Z,27.07
2023-02-23T00:20:10.131Z,27.33
2023-02-23T00:22:37.670Z,31.43
2023-02-23T00:25:05.342Z,28.17
2023-02-23T00:27:32.877Z,26.40
2023-02-23T00:30:00.430Z,28.70
2023-02-23T00:32:29.266Z,29.07
2023-02-23T00:34:56.683Z,31.13
2023-02-23T00:37:24.238Z,32.17
2023-02-23T00:39:51.826Z,30.53
2023-02-23T00:42:19.363Z,27.30
2023-02-23T00:44:46.903Z,32.25
2023-02-23T00:47:14.496Z,27.33
2023-02-23T00:49:42.037Z,31.07
2023-02-23T00:52:09.576Z,33.08
2023-02-23T00:54:37.141Z,25.57
2023-02-23T00:57:04.690Z,32.37
2023-02-23T00:59:32.210Z,31.83
2023-02-23T01:02:00.584Z,26.50
2023-02-23T01:04:28.113Z,27.00
2023-02-23T01:06:55.630Z,32.75
2023-02-23T01:09:23.348Z,28.80
2023-02-23T01:11:50.767Z,27.53
2023-02-23T01:14:18.320Z,26.33
2023-02-23T01:16:45.872Z,25.07
2023-02-23T01:19:13.445Z,26.33
2023-02-23T01:21:40.971Z,20.60
2023-02-23T01:24:08.566Z,20.30
2023-02-23T01:26:36.107Z,18.93
2023-02-23T01:29:03.641Z,19.77
2023-02-23T01:31:32.062Z,19.23
2023-02-23T01:33:59.532Z,18.03
2023-02-23T01:36:27.094Z,18.10
2023-02-23T01:38:54.667Z,22.03
2023-02-23T01:41:22.232Z,20.17
2023-02-23T01:44:08.047Z,24.75
2023-02-23T01:46:35.558Z,24.10
2023-02-23T01:49:03.101Z,25.52
2023-02-23T01:51:33.630Z,21.67
2023-02-23T01:54:01.141Z,21.47
2023-02-23T01:56:32.518Z,18.67
2023-02-23T01:59:00.143Z,19.63
2023-02-23T02:01:27.701Z,20.47
2023-02-23T02:03:57.888Z,22.00
2023-02-23T02:06:25.462Z,19.17
2023-02-23T02:08:53.009Z,20.17
2023-02-23T02:11:26.411Z,22.42
2023-02-23T02:13:53.868Z,20.10
2023-02-23T02:16:26.943Z,19.67
2023-02-23T02:19:28.125Z,21.92
2023-02-23T02:22:14.009Z,23.23
2023-02-23T02:24:50.560Z,22.00
2023-02-23T02:27:36.051Z,20.43
2023-02-23T02:30:18.692Z,19.77
2023-02-23T02:33:08.064Z,20.42
2023-02-23T02:35:36.406Z,18.53
2023-02-23T02:38:41.453Z,17.80
2023-02-23T02:41:14.710Z,19.65
2023-02-23T02:43:45.246Z,18.70
2023-02-23T02:46:15.355Z,20.17
2023-02-23T02:48:55.374Z,15.37
2023-02-23T02:51:26.377Z,19.43
2023-02-23T02:54:21.520Z,17.97
2023-02-23T02:56:49.828Z,19.43
2023-02-23T02:59:35.454Z,22.10
2023-02-23T03:02:21.183Z,18.87
2023-02-23T03:05:07.602Z,19.90
2023-02-23T03:07:59.450Z,21.10
2023-02-23T03:10:53.906Z,22.53
2023-02-23T03:13:55.074Z,19.30
2023-02-23T03:16:46.595Z,21.67
2023-02-23T03:19:32.235Z,17.90
2023-02-23T03:22:40.222Z,19.50
2023-02-23T03:25:25.810Z,18.67
2023-02-23T03:28:12.307Z,17.50
2023-02-23T03:31:09.819Z,20.03
2023-02-23T03:33:58.282Z,20.03
2023-02-23T03:36:43.825Z,20.70
2023-02-23T03:39:45.106Z,25.43
2023-02-23T03:42:30.794Z,21.87
2023-02-23T03:45:16.711Z,27.37
2023-02-23T03:48:02.480Z,27.87
2023-02-23T03:50:48.215Z,26.50
2023-02-23T03:53:34.769Z,26.23
2023-02-23T03:56:20.410Z,27.27
2023-02-23T03:59:06.747Z,28.13
2023-02-23T04:01:52.634Z,26.73
2023-02-23T04:04:38.409Z,28.27
2023-02-23T04:07:24.148Z,27.30
2023-02-23T04:10:09.808Z,28.30
2023-02-23T04:13:13.439Z,28.07
2023-02-23T04:15:52.789Z,27.47
2023-02-23T04:18:26.052Z,29.57
2023-02-23T04:20:53.684Z,26.27
2023-02-23T04:23:21.172Z,33.63
2023-02-23T04:25:48.736Z,33.58
2023-02-23T04:28:16.283Z,31.40
2023-02-23T04:30:43.865Z,27.33
2023-02-23T04:33:11.373Z,28.63
2023-02-23T04:35:38.918Z,29.87
2023-02-23T04:38:06.490Z,27.97
2023-02-23T04:40:34.059Z,29.03
2023-02-23T04:43:01.591Z,26.77
2023-02-23T04:45:29.128Z,27.03
2023-02-23T04:47:57.442Z,30.33
2023-02-23T04:50:24.990Z,30.90
2023-02-23T04:52:52.508Z,29.60
2023-02-23T04:55:20.862Z,26.90
2023-02-23T04:57:48.394Z,28.10
2023-02-23T05:00:16.010Z,28.73
2023-02-23T05:02:43.612Z,27.33
2023-02-23T05:05:11.239Z,31.67
2023-02-23T05:07:38.681Z,30.20
2023-02-23T05:10:07.157Z,33.03
2023-02-23T05:12:34.690Z,28.03
2023-02-23T05:15:02.219Z,30.27
2023-02-23T05:17:29.807Z,27.43
2023-02-23T05:19:57.350Z,42.23
2023-02-23T05:22:24.895Z,30.45
2023-02-23T05:24:52.472Z,26.80
2023-02-23T05:27:20.004Z,26.77
2023-02-23T05:29:47.538Z,26.47
2023-02-23T05:32:16.010Z,29.73
2023-02-23T05:34:43.426Z,26.17
2023-02-23T05:37:10.942Z,29.63
2023-02-23T05:39:39.279Z,26.50
2023-02-23T05:42:06.805Z,26.83
2023-02-23T05:44:34.328Z,39.60
2023-02-23T05:47:03.666Z,30.33
2023-02-23T05:49:31.208Z,33.43
2023-02-23T05:51:58.754Z,33.63
2023-02-23T05:54:27.201Z,29.50
2023-02-23T05:56:54.679Z,28.67
2023-02-23T05:59:22.209Z,28.53
2023-02-23T06:01:49.780Z,32.63
2023-02-23T06:04:17.391Z,33.13
2023-02-23T06:06:44.921Z,33.05
2023-02-23T06:09:12.503Z,37.53
2023-02-23T06:11:40.071Z,28.60
2023-02-23T06:14:07.599Z,31.03
2023-02-23T06:16:36.022Z,33.07
2023-02-23T06:19:03.487Z,30.53
2023-02-23T06:21:31.039Z,35.33
2023-02-23T06:23:58.624Z,29.60
2023-02-23T06:26:26.202Z,31.97
2023-02-23T06:28:53.748Z,32.57
2023-02-23T06:31:21.618Z,36.20
2023-02-23T06:33:49.661Z,27.80
2023-02-23T06:36:17.211Z,27.43
2023-02-23T06:38:44.819Z,31.53
2023-02-23T06:41:12.373Z,35.03
2023-02-23T06:43:39.909Z,31.03
2023-02-23T06:46:07.509Z,35.40
2023-02-23T06:48:35.021Z,35.67
2023-02-23T06:51:02.557Z,37.25
2023-02-23T06:53:30.148Z,34.73
2023-02-23T06:55:57.748Z,29.30
2023-02-23T06:58:25.308Z,31.87
2023-02-23T07:00:53.668Z,33.23
2023-02-23T07:03:21.195Z,30.63
2023-02-23T07:05:48.727Z,40.30
2023-02-23T07:08:16.349Z,37.93
2023-02-23T07:10:44.670Z,38.00
2023-02-23T07:13:14.646Z,38.13
2023-02-23T07:15:42.249Z,37.57
2023-02-23T07:18:09.762Z,37.65
2023-02-23T07:20:38.096Z,35.43
2023-02-23T07:23:05.680Z,29.73
2023-02-23T07:25:33.243Z,33.77
2023-02-23T07:28:00.804Z,30.97
2023-02-23T07:30:28.407Z,37.97
2023-02-23T07:32:56.824Z,36.63
2023-02-23T07:35:25.075Z,32.50
2023-02-23T07:37:52.662Z,36.00
2023-02-23T07:40:20.215Z,32.07
2023-02-23T07:42:47.767Z,33.70
2023-02-23T07:45:15.336Z,29.97
2023-02-23T07:47:42.871Z,29.20
2023-02-23T07:50:10.586Z,33.73
2023-02-23T07:52:38.142Z,31.67
2023-02-23T07:55:05.697Z,30.80
2023-02-23T07:57:33.230Z,38.60
2023-02-23T08:00:00.813Z,38.40
2023-02-23T08:02:28.378Z,33.07
2023-02-23T08:04:55.909Z,36.45
2023-02-23T08:07:23.478Z,33.17
2023-02-23T08:09:51.028Z,35.47
2023-02-23T08:12:18.539Z,33.43
2023-02-23T08:14:46.893Z,38.20
2023-02-23T08:17:14.439Z,33.37
2023-02-23T08:19:41.993Z,31.87
2023-02-23T08:22:10.260Z,42.47
2023-02-23T08:24:37.163Z,57.53
2023-02-23T08:27:05.492Z,42.20
2023-02-23T08:29:33.092Z,36.93
2023-02-23T08:32:04.013Z,34.10
2023-02-23T08:34:31.434Z,33.97
2023-02-23T08:36:59.023Z,32.50
2023-02-23T08:39:26.569Z,31.80
2023-02-23T08:41:54.104Z,41.75
2023-02-23T08:44:21.702Z,36.63
2023-02-23T08:46:49.231Z,31.33
2023-02-23T08:49:16.773Z,34.63
2023-02-23T08:51:44.366Z,32.53
2023-02-23T08:54:11.919Z,33.20
2023-02-23T08:56:39.445Z,34.70
2023-02-23T08:59:07.049Z,34.53
2023-02-23T09:01:34.635Z,30.60
2023-02-23T09:04:02.140Z,31.23
2023-02-23T09:06:29.721Z,34.42
2023-02-23T09:08:57.266Z,31.37
2023-02-23T09:11:24.820Z,30.77
2023-02-23T09:13:52.396Z,27.30
2023-02-23T09:16:20.086Z,30.03
2023-02-23T09:18:47.472Z,30.73
2023-02-23T09:21:15.046Z,29.93
2023-02-23T09:23:42.583Z,27.73
2023-02-23T09:26:10.126Z,26.00
2023-02-23T09:28:37.720Z,26.03
2023-02-23T09:31:05.343Z,28.10
2023-02-23T09:33:32.799Z,28.63
2023-02-23T09:36:01.156Z,28.43
2023-02-23T09:38:28.707Z,28.27
2023-02-23T09:40:56.231Z,30.70
2023-02-23T09:43:45.528Z,31.20
2023-02-23T09:46:21.767Z,26.13
2023-02-23T09:48:50.027Z,24.97
2023-02-23T09:51:18.042Z,27.90
2023-02-23T09:53:57.032Z,26.33
2023-02-23T09:56:30.497Z,28.47
2023-02-23T09:58:58.791Z,24.90
2023-02-23T10:02:03.306Z,26.87
2023-02-23T10:07:10.212Z,27.13
2023-02-23T10:09:55.671Z,25.73
2023-02-23T10:12:29.807Z,26.30
2023-02-23T10:14:57.363Z,26.63
2023-02-23T10:17:43.180Z,25.87
2023-02-23T10:20:22.827Z,26.57
2023-02-23T10:22:50.404Z,27.80
2023-02-23T10:25:17.937Z,25.57
2023-02-23T10:27:45.484Z,26.00
2023-02-23T10:30:24.796Z,25.03
2023-02-23T10:32:53.106Z,26.50
2023-02-23T10:35:20.645Z,26.00
2023-02-23T10:37:48.232Z,27.37
2023-02-23T10:40:15.776Z,28.27
2023-02-23T10:42:43.301Z,26.00
2023-02-23T10:45:14.568Z,24.00
2023-02-23T10:47:42.101Z,26.40
2023-02-23T10:50:10.645Z,29.37
2023-02-23T10:52:42.111Z,27.90
2023-02-23T10:55:09.423Z,28.37
2023-02-23T10:57:39.050Z,24.07
2023-02-23T11:00:08.373Z,28.20
2023-02-23T11:02:38.616Z,27.27
2023-02-23T11:05:06.219Z,28.38
2023-02-23T11:07:34.077Z,27.10
2023-02-23T11:10:01.622Z,27.17
2023-02-23T11:12:32.107Z,26.80
2023-02-23T11:15:00.538Z,27.63
2023-02-23T11:17:30.855Z,26.63
2023-02-23T11:20:16.865Z,28.27
2023-02-23T11:22:44.508Z,29.20
2023-02-23T11:25:18.061Z,27.03
2023-02-23T11:27:48.320Z,27.57
2023-02-23T11:30:16.612Z,24.70
2023-02-23T11:32:44.163Z,25.40
2023-02-23T11:35:21.320Z,25.70
2023-02-23T11:37:48.856Z,27.60
2023-02-23T11:40:28.407Z,23.17
2023-02-23T11:43:07.598Z,25.52
2023-02-23T11:45:50.462Z,21.40
2023-02-23T11:48:36.114Z,22.67
2023-02-23T11:51:03.678Z,23.70
2023-02-23T11:53:36.894Z,23.80
2023-02-23T11:56:04.437Z,22.37
2023-02-23T11:58:44.025Z,22.60
2023-02-23T12:01:17.461Z,21.07
2023-02-23T12:03:54.324Z,21.93
2023-02-23T12:06:37.218Z,21.43
2023-02-23T12:09:23.734Z,24.60
2023-02-23T12:12:02.987Z,20.57
2023-02-23T12:14:33.315Z,22.40
2023-02-23T12:17:00.939Z,21.67
2023-02-23T12:19:29.256Z,21.63
2023-02-23T12:21:56.826Z,20.90
2023-02-23T12:24:42.460Z,22.53
2023-02-23T12:27:12.905Z,18.70
2023-02-23T12:29:49.401Z,18.80
2023-02-23T12:32:19.984Z,21.85
2023-02-23T12:34:56.629Z,17.17
2023-02-23T12:37:27.012Z,19.67
2023-02-23T12:39:54.555Z,16.27
2023-02-23T12:42:27.809Z,15.77
2023-02-23T12:44:55.394Z,13.50
2023-02-23T12:47:50.137Z,16.17
2023-02-23T12:50:33.099Z,14.53
2023-02-23T12:53:06.544Z,13.93
2023-02-23T12:55:49.197Z,11.43
2023-02-23T12:58:29.135Z,13.68
2023-02-23T13:00:59.531Z,11.77
2023-02-23T13:03:54.818Z,13.47
2023-02-23T13:06:25.139Z,13.07
2023-02-23T13:08:55.580Z,11.87
2023-02-23T13:11:25.987Z,13.23
2023-02-23T13:13:53.551Z,12.53
2023-02-23T13:16:23.810Z,12.10
2023-02-23T13:19:06.527Z,9.60
2023-02-23T13:21:34.080Z,11.10
2023-02-23T13:24:13.036Z,13.65
2023-02-23T13:26:43.250Z,11.97
2023-02-23T13:29:28.949Z,11.98
2023-02-23T13:31:57.463Z,12.88
2023-02-23T13:34:30.529Z,11.03
2023-02-23T13:36:58.888Z,10.15
2023-02-23T13:39:47.550Z,11.67
2023-02-23T13:42:32.719Z,9.85
2023-02-23T13:45:31.498Z,9.13
2023-02-23T13:48:14.892Z,7.53
2023-02-23T13:50:45.369Z,8.35
2023-02-23T13:53:28.404Z,8.77
2023-02-23T13:55:56.713Z,8.03
2023-02-23T13:58:27.283Z,6.47
2023-02-23T14:01:12.594Z,5.00
2023-02-23T14:03:55.930Z,6.50
2023-02-23T14:06:23.513Z,6.90
2023-02-23T14:08:53.743Z,4.60
2023-02-23T14:11:27.982Z,6.00
2023-02-23T14:13:58.804Z,4.80
2023-02-23T14:16:26.355Z,4.97
2023-02-23T14:18:53.860Z,5.53
2023-02-23T14:21:46.395Z,5.60
2023-02-23T14:24:16.349Z,6.50
2023-02-23T14:26:46.610Z,10.77
2023-02-23T14:29:19.671Z,7.07
2023-02-23T14:32:05.461Z,6.17
2023-02-23T14:34:51.888Z,8.17
2023-02-23T14:37:19.425Z,5.03
2023-02-23T14:39:46.975Z,8.90
2023-02-23T14:42:14.562Z,6.13
2023-02-23T14:44:42.097Z,5.97
2023-02-23T14:47:09.640Z,8.03
2023-02-23T14:49:37.240Z,6.07
2023-02-23T14:52:07.759Z,6.67
2023-02-23T14:54:35.298Z,14.60
2023-02-23T14:57:02.916Z,5.50
2023-02-23T14:59:30.432Z,5.87
2023-02-23T15:01:58.049Z,5.63
2023-02-23T15:04:25.609Z,7.12
2023-02-23T15:06:53.095Z,8.17
2023-02-23T15:09:20.633Z,4.20
2023-02-23T15:11:48.215Z,5.37
2023-02-23T15:14:26.925Z,6.23
2023-02-23T15:16:43.384Z,10.20
2023-02-23T15:19:11.727Z,7.03
2023-02-23T15:21:39.347Z,8.37
2023-02-23T15:24:12.693Z,9.35
2023-02-23T15:26:40.269Z,10.53
2023-02-23T15:29:10.847Z,18.02
2023-02-23T15:31:38.548Z,31.10
2023-02-23T15:34:12.503Z,18.13
2023-02-23T15:36:40.066Z,20.80
2023-02-23T15:39:07.608Z,7.13
2023-02-23T15:41:35.992Z,7.37
2023-02-23T15:44:07.061Z,7.47
2023-02-23T15:46:34.612Z,7.50
2023-02-23T15:49:02.162Z,8.13
2023-02-23T15:51:41.353Z,8.37
2023-02-23T15:54:27.284Z,8.17
2023-02-23T15:56:57.582Z,7.53
2023-02-23T15:59:27.844Z,11.30
2023-02-23T16:01:57.181Z,9.57
2023-02-23T16:04:24.507Z,8.27
2023-02-23T16:06:55.074Z,11.87
2023-02-23T16:09:22.649Z,9.87
2023-02-23T16:12:05.128Z,9.43
2023-02-23T16:14:44.910Z,9.63
2023-02-23T16:17:21.473Z,11.90
2023-02-23T16:19:48.980Z,10.63
2023-02-23T16:22:22.564Z,16.53
2023-02-23T16:24:50.137Z,16.63
2023-02-23T16:27:18.399Z,12.37
2023-02-23T16:29:45.986Z,9.93
2023-02-23T16:32:19.352Z,11.70
2023-02-23T16:34:55.374Z,9.47
2023-02-23T16:37:28.368Z,9.77
2023-02-23T16:39:56.692Z,11.23
2023-02-23T16:42:30.526Z,14.63
2023-02-23T16:44:58.062Z,13.27
2023-02-23T16:47:34.639Z,13.60
2023-02-23T16:50:10.529Z,15.03
2023-02-23T16:52:29.833Z,16.27
2023-02-23T16:54:58.136Z,12.30
2023-02-23T16:57:25.730Z,12.37
2023-02-23T16:59:53.284Z,13.30
2023-02-23T17:02:20.851Z,13.60
2023-02-23T17:04:50.848Z,12.70
2023-02-23T17:07:18.374Z,14.40
2023-02-23T17:09:45.908Z,12.07
2023-02-23T17:12:14.245Z,14.00
2023-02-23T17:14:41.876Z,12.70
2023-02-23T17:17:09.409Z,13.75
2023-02-23T17:19:36.919Z,11.67
2023-02-23T17:22:04.467Z,14.47
2023-02-23T17:24:32.000Z,12.43
2023-02-23T17:26:59.583Z,13.80
2023-02-23T17:29:27.117Z,15.83
2023-02-23T17:31:54.854Z,13.33
2023-02-23T17:34:23.023Z,11.77
2023-02-23T17:36:51.317Z,15.23
2023-02-23T17:39:18.851Z,12.67
2023-02-23T17:41:47.209Z,11.97
2023-02-23T17:44:14.755Z,10.60
2023-02-23T17:46:42.389Z,12.20
2023-02-23T17:49:09.888Z,11.43
2023-02-23T17:51:37.486Z,10.50
2023-02-23T17:54:05.776Z,10.82
2023-02-23T17:56:33.335Z,10.50
2023-02-23T17:59:00.879Z,11.57
2023-02-23T18:01:29.219Z,10.43
2023-02-23T18:03:56.785Z,10.55
2023-02-23T18:06:24.313Z,11.00
2023-02-23T18:08:51.868Z,12.23
2023-02-23T18:11:19.438Z,10.73
2023-02-23T18:13:48.157Z,9.03
2023-02-23T18:16:14.573Z,11.70
2023-02-23T18:18:42.115Z,12.70
2023-02-23T18:21:12.424Z,10.90
2023-02-23T18:23:39.944Z,11.77
2023-02-23T18:26:08.277Z,15.73
2023-02-23T18:28:35.825Z,12.80
2023-02-23T18:31:03.446Z,15.32
2023-02-23T18:33:30.946Z,12.50
2023-02-23T18:35:58.478Z,14.07
2023-02-23T18:38:26.128Z,14.67
2023-02-23T18:40:54.470Z,14.03
2023-02-23T18:43:21.992Z,16.03
2023-02-23T18:45:49.521Z,15.57
2023-02-23T18:48:17.106Z,18.30
2023-02-23T18:50:44.646Z,17.60
2023-02-23T18:53:12.970Z,16.77
2023-02-23T18:55:40.554Z,16.37
2023-02-23T18:58:08.109Z,19.30
2023-02-23T19:00:35.718Z,19.17
2023-02-23T19:03:03.600Z,17.17
2023-02-23T19:05:31.230Z,18.83
2023-02-23T19:07:58.667Z,20.83
2023-02-23T19:10:27.014Z,20.63
2023-02-23T19:12:54.557Z,17.90
2023-02-23T19:15:22.099Z,22.80
2023-02-23T19:17:49.703Z,20.87
2023-02-23T19:20:18.051Z,21.63
2023-02-23T19:22:45.542Z,24.98
2023-02-23T19:25:13.130Z,21.17
2023-02-23T19:27:41.443Z,23.47
2023-02-23T19:30:09.197Z,23.10
2023-02-23T19:32:37.002Z,23.83
2023-02-23T19:35:04.309Z,22.27
2023-02-23T19:37:31.856Z,27.70
2023-02-23T19:40:02.326Z,23.50
2023-02-23T19:42:27.599Z,22.63
2023-02-23T19:44:55.130Z,23.00
2023-02-23T19:47:23.481Z,28.23
2023-02-23T19:49:51.006Z,25.77
2023-02-23T19:52:18.556Z,25.63
2023-02-23T19:54:46.946Z,25.73
2023-02-23T19:57:14.479Z,29.93
2023-02-23T19:59:41.993Z,30.73
2023-02-23T20:02:09.660Z,28.13
2023-02-23T20:04:37.140Z,32.00
2023-02-23T20:07:05.448Z,28.87
2023-02-23T20:09:33.016Z,27.87
2023-02-23T20:12:00.535Z,27.70
2023-02-23T20:14:28.837Z,29.40
2023-02-23T20:16:56.450Z,31.53
2023-02-23T20:19:23.992Z,29.53
2023-02-23T20:21:51.524Z,29.13
2023-02-23T20:24:19.076Z,28.37
2023-02-23T20:26:46.612Z,27.20
2023-02-23T20:29:14.591Z,30.13
2023-02-23T20:31:42.982Z,27.67
2023-02-23T20:34:10.417Z,28.67
2023-02-23T20:36:37.970Z,29.43
2023-02-23T20:39:05.550Z,29.63
2023-02-23T20:41:33.096Z,26.93
2023-02-23T20:44:01.495Z,32.30
2023-02-23T20:46:29.060Z,33.60
2023-02-23T20:48:56.617Z,28.23
2023-02-23T20:51:24.148Z,30.30
2023-02-23T20:53:53.089Z,29.43
2023-02-23T20:56:20.628Z,29.77
2023-02-23T20:58:48.193Z,29.50
2023-02-23T21:01:15.821Z,27.47
2023-02-23T21:03:43.372Z,26.77
2023-02-23T21:06:10.876Z,28.30
2023-02-23T21:08:38.423Z,24.87
2023-02-23T21:11:05.958Z,26.67
2023-02-23T21:13:33.512Z,26.47
2023-02-23T21:16:01.937Z,25.63
2023-02-23T21:18:30.176Z,25.17
2023-02-23T21:20:57.711Z,24.00
2023-02-23T21:23:25.306Z,28.13
2023-02-23T21:25:52.841Z,24.40
2023-02-23T21:28:21.149Z,25.27
2023-02-23T21:30:49.574Z,23.53
2023-02-23T21:33:17.058Z,21.97
2023-02-23T21:35:45.356Z,22.80
2023-02-23T21:38:13.237Z,23.87
2023-02-23T21:40:40.741Z,24.90
2023-02-23T21:43:08.293Z,23.47
2023-02-23T21:45:35.842Z,22.50
2023-02-23T21:48:03.385Z,20.20
2023-02-23T21:50:30.995Z,23.80
2023-02-23T21:52:58.505Z,25.23
2023-02-23T21:55:26.036Z,23.20
2023-02-23T21:57:53.571Z,23.87
2023-02-23T22:00:21.946Z,23.57
2023-02-23T22:02:50.265Z,22.10
2023-02-23T22:05:17.790Z,23.17
2023-02-23T22:07:48.008Z,19.17
2023-02-23T22:10:16.432Z,23.87
2023-02-23T22:12:43.940Z,25.57
2023-02-23T22:15:12.671Z,21.90
2023-02-23T22:17:40.194Z,26.60
2023-02-23T22:20:08.628Z,25.77
2023-02-23T22:22:36.341Z,24.03
2023-02-23T22:25:03.739Z,26.37
2023-02-23T22:27:31.300Z,25.33
2023-02-23T22:29:59.240Z,27.30
2023-02-23T22:32:27.021Z,36.50
2023-02-23T22:34:55.098Z,26.23
2023-02-23T22:37:23.254Z,26.03
2023-02-23T22:39:50.790Z,23.63
2023-02-23T22:42:18.321Z,23.93
2023-02-23T22:44:45.904Z,24.63
2023-02-23T22:47:14.218Z,27.33
2023-02-23T22:49:41.790Z,24.23
2023-02-23T22:52:10.143Z,24.97
2023-02-23T22:54:37.672Z,25.23
2023-02-23T22:57:05.983Z,26.93
2023-02-23T22:59:33.575Z,23.10
2023-02-23T23:02:01.112Z,23.93
2023-02-23T23:04:28.669Z,29.97
2023-02-23T23:06:56.204Z,50.83
2023-02-23T23:09:23.728Z,81.87
2023-02-23T23:11:52.052Z,48.53
2023-02-23T23:14:19.661Z,32.23
2023-02-23T23:16:50.047Z,27.03
2023-02-23T23:19:17.556Z,30.27
2023-02-23T23:21:45.891Z,26.17
2023-02-23T23:24:16.020Z,27.37
2023-02-23T23:26:43.537Z,28.30
2023-02-23T23:29:11.905Z,27.30
2023-02-23T23:31:39.584Z,28.23
2023-02-23T23:34:07.726Z,27.73
2023-02-23T23:36:35.314Z,30.07
2023-02-23T23:39:02.890Z,26.77
2023-02-23T23:41:31.155Z,24.20
2023-02-23T23:43:58.781Z,27.63
2023-02-23T23:46:26.278Z,28.63
2023-02-23T23:48:56.881Z,32.07
2023-02-23T23:51:24.483Z,26.23
2023-02-23T23:53:54.679Z,25.97
2023-02-23T23:56:22.201Z,26.20
2023-02-23T23:58:53.276Z,26.67
